6VG8 weather

Longview Heliport
Leesburg, Virginia, United States

Public forecast

Using degrees Fahrenheit for public forecast. Weather courtesy of forecast.io.

Closest aviation weather report (METAR) to Longview Heliport

Closest report is Leesburg Executive Airport, 5.8 nm (10.8 km) SSW. Retrieved 2020/05/25 21:35 UTC (0 seconds ago):

KJYO 252135Z AUTO 16003KT 10SM CLR 25/17 A3016 RMK AO2

Closest aviation forecast (TAF) to Longview Heliport

Closest forecast is Washington Dulles International Airport, 13.9 nm (25.7 km) SSE. Retrieved 2020/05/25 18:36 UTC (3 hours ago):

TAF KIAD 251732Z 2518/2624 13005KT P6SM OVC025 FM252000 16005KT P6SM SCT030 FM260900 VRB03KT P6SM BKN015 FM261500 13004KT P6SM BKN030 FM261800 14006KT P6SM SCT030